Time;durP1;ratioP1;P1;durP2;ratioP2;P2;SDS_P1;SDS_P2;PMS_P1;PMS_P2;Temp;Humidity;BMP_temperature;BMP_pressure;BME280_temperature;BME280_humidity;BME280_pressure;Samples;Min_cycle;Max_cycle;Signal;HPM_P1;HPM_P2
2021/07/28 05:00:21;;;;;;;;;;;;;;;22.52;80.67;100012.76;1838782;77;20143;-67
2021/07/28 05:02:48;;;;;;;;;;;;;;;22.40;81.17;100015.88;1796509;79;20090;-68
2021/07/28 05:05:15;;;;;;;;;;;;;;;22.37;81.81;100013.58;1800415;78;21254;-66
2021/07/28 05:07:41;;;;;;;;;;;;;;;22.37;82.36;100012.25;1804392;78;20454;-68
2021/07/28 05:10:09;;;;;;;;;;;;;;;22.39;82.68;100019.05;1799074;78;20071;-66
2021/07/28 05:12:36;;;;;;;;;;;;;;;22.44;82.79;100014.06;1790519;78;20157;-61
2021/07/28 05:15:04;;;;;;;;;;;;;;;22.48;82.68;100007.44;1794343;80;20443;-64
2021/07/28 05:17:31;;;;;;;;;;;;;;;22.52;82.53;100011.43;1813443;78;21098;-70
2021/07/28 05:19:57;;;;;;;;;;;;;;;22.59;82.56;100008.95;1802571;78;20078;-68
2021/07/28 05:22:25;;;;;;;;;;;;;;;22.70;82.27;100011.80;1808169;78;20188;-65
2021/07/28 05:24:53;;;;;;;;;;;;;;;22.80;81.70;100000.03;1795804;80;20078;-68
2021/07/28 05:27:19;;;;;;;;;;;;;;;22.91;81.10;99997.55;1810448;78;20090;-76
2021/07/28 05:29:46;;;;;;;;;;;;;;;23.01;80.60;99992.91;1807320;78;21470;-66
2021/07/28 05:32:13;;;;;;;;;;;;;;;23.09;80.25;99987.59;1800332;78;20310;-66
2021/07/28 05:34:40;;;;;;;;;;;;;;;23.14;79.83;99991.08;1803494;78;20145;-68
2021/07/28 05:37:07;;;;;;;;;;;;;;;23.21;79.69;99992.04;1792747;80;20297;-73
2021/07/28 05:39:34;;;;;;;;;;;;;;;23.29;79.85;99991.53;1792693;78;20113;-76
2021/07/28 05:42:01;;;;;;;;;;;;;;;23.41;79.47;99982.72;1794555;78;21206;-73
2021/07/28 05:44:29;;;;;;;;;;;;;;;23.53;78.99;99983.22;1796377;78;20102;-72
2021/07/28 05:46:55;;;;;;;;;;;;;;;23.65;78.13;99981.83;1799994;78;20392;-74
2021/07/28 05:49:22;;;;;;;;;;;;;;;23.77;77.86;99978.31;1812812;78;20102;-72
2021/07/28 05:51:49;;;;;;;;;;;;;;;23.93;77.34;99980.91;1809748;78;20086;-73
2021/07/28 05:54:16;;;;;;;;;;;;;;;24.13;76.80;99980.80;1818895;78;21111;-75
2021/07/28 05:56:43;;;;;;;;;;;;;;;24.38;76.23;99966.06;1808904;78;20457;-73
2021/07/28 05:59:09;;;;;;;;;;;;;;;24.73;75.22;99965.95;1800451;78;20123;-74
2021/07/28 06:01:37;;;;;;;;;;;;;;;25.14;73.77;99966.45;1809255;78;20132;-74
2021/07/28 06:04:04;;;;;;;;;;;;;;;25.54;72.41;99966.52;1809144;78;20117;-74
2021/07/28 06:06:30;;;;;;;;;;;;;;;25.93;70.93;99962.23;1811447;78;21113;-76
2021/07/28 06:08:57;;;;;;;;;;;;;;;26.28;69.07;99957.07;1804509;78;20078;-66
2021/07/28 06:11:24;;;;;;;;;;;;;;;26.56;67.84;99948.13;1805478;79;20222;-76
2021/07/28 06:13:51;;;;;;;;;;;;;;;26.80;66.67;99949.56;1804943;79;20135;-72
2021/07/28 06:16:19;;;;;;;;;;;;;;;26.99;66.06;99952.12;1795608;79;20111;-76
2021/07/28 06:18:46;;;;;;;;;;;;;;;27.14;65.07;99947.51;1808623;79;21047;-67
2021/07/28 06:21:13;;;;;;;;;;;;;;;27.29;64.53;99954.57;1795155;79;20165;-74
2021/07/28 06:23:40;;;;;;;;;;;;;;;27.48;63.95;99964.58;1793090;79;20137;-73
2021/07/28 06:26:06;;;;;;;;;;;;;;;27.73;63.05;99960.41;1799211;79;20124;-72
2021/07/28 06:28:33;;;;;;;;;;;;;;;28.02;62.53;99962.46;1792905;78;20500;-77
2021/07/28 06:31:00;;;;;;;;;;;;;;;28.33;61.56;99958.80;1811513;79;21527;-75
2021/07/28 06:33:27;;;;;;;;;;;;;;;28.68;60.75;99947.91;1794970;80;20433;-72
2021/07/28 06:35:55;;;;;;;;;;;;;;;29.03;58.46;99950.70;1791017;79;20098;-70
2021/07/28 06:38:23;;;;;;;;;;;;;;;29.27;58.12;99954.58;1802757;79;20531;-78
2021/07/28 06:40:50;;;;;;;;;;;;;;;29.33;56.43;99951.58;1800847;79;20157;-74
2021/07/28 06:43:17;;;;;;;;;;;;;;;29.18;56.91;99949.15;1805259;79;21853;-73
2021/07/28 06:45:44;;;;;;;;;;;;;;;29.13;57.43;99955.66;1805563;79;20078;-72
2021/07/28 06:48:11;;;;;;;;;;;;;;;29.29;57.29;99953.85;1811285;79;20124;-77
2021/07/28 06:50:38;;;;;;;;;;;;;;;29.57;56.45;99966.22;1796558;79;20392;-76
2021/07/28 06:53:05;;;;;;;;;;;;;;;29.87;55.57;99960.63;1799403;79;20170;-69
2021/07/28 06:55:33;;;;;;;;;;;;;;;30.14;54.68;99962.68;1794507;79;21985;-73
2021/07/28 06:58:00;;;;;;;;;;;;;;;30.32;53.68;99955.25;1793711;79;20133;-67
2021/07/28 07:00:26;;;;;;;;;;;;;;;30.31;53.59;99957.12;1802001;78;20075;-76
2021/07/28 07:02:58;;;;;;;;;;;;;;;30.23;53.57;99961.92;1798485;78;20138;-72
2021/07/28 07:05:25;;;;;;;;;;;;;;;30.17;53.92;99959.56;1798234;78;20160;-67
2021/07/28 07:07:52;;;;;;;;;;;;;;;30.24;53.98;99950.13;1799948;78;21113;-67
2021/07/28 07:10:19;;;;;;;;;;;;;;;30.43;54.12;99951.33;1802737;78;20111;-71
2021/07/28 07:12:46;;;;;;;;;;;;;;;30.68;53.76;99961.33;1792286;78;20483;-71
2021/07/28 07:15:12;;;;;;;;;;;;;;;30.78;52.83;99962.50;1784387;79;20086;-71
2021/07/28 07:17:39;;;;;;;;;;;;;;;30.81;52.14;99971.44;1794393;79;20204;-68
2021/07/28 07:20:07;;;;;;;;;;;;;;;30.84;52.22;99967.48;1784626;79;21089;-69
2021/07/28 07:22:34;;;;;;;;;;;;;;;30.82;52.33;99968.23;1794279;79;20140;-74
2021/07/28 07:25:04;;;;;;;;;;;;;;;30.80;52.26;99971.14;1796286;79;20114;-74
2021/07/28 07:27:30;;;;;;;;;;;;;;;30.74;52.13;99972.56;1789617;78;20101;-72
2021/07/28 07:29:59;;;;;;;;;;;;;;;30.73;52.15;99977.63;1790344;78;20116;-68
2021/07/28 07:32:32;;;;;;;;;;;;;;;30.78;52.21;99975.12;1796407;79;21140;-66
2021/07/28 07:34:59;;;;;;;;;;;;;;;30.86;52.18;99974.81;1796499;79;20116;-67
2021/07/28 07:37:29;;;;;;;;;;;;;;;31.01;51.51;99969.94;1785220;79;20067;-71
2021/07/28 07:39:56;;;;;;;;;;;;;;;31.19;50.73;99975.92;1796208;79;20220;-73
2021/07/28 07:42:23;;;;;;;;;;;;;;;31.46;50.28;99979.98;1787774;79;20139;-75
2021/07/28 07:44:53;;;;;;;;;;;;;;;31.79;49.71;99981.50;1787889;79;21076;-70
2021/07/28 07:47:19;;;;;;;;;;;;;;;32.12;48.98;99988.63;1795672;79;20125;-72
2021/07/28 07:49:45;;;;;;;;;;;;;;;32.45;48.55;99981.97;1796339;79;20086;-73
2021/07/28 07:52:12;;;;;;;;;;;;;;;32.80;47.50;99976.16;1794405;78;20083;-74
2021/07/28 07:54:39;;;;;;;;;;;;;;;33.10;46.78;99967.98;1792395;78;20087;-70
2021/07/28 07:57:08;;;;;;;;;;;;;;;33.38;45.49;99971.86;1791952;78;21018;-73
2021/07/28 07:59:37;;;;;;;;;;;;;;;33.44;45.33;99967.69;1776912;79;20219;-78
2021/07/28 08:02:04;;;;;;;;;;;;;;;33.59;45.02;99973.13;1744056;81;20171;-74
2021/07/28 08:04:32;;;;;;;;;;;;;;;33.68;44.42;99970.33;1741191;81;20143;-79
2021/07/28 08:06:59;;;;;;;;;;;;;;;33.71;43.90;99968.50;1752133;80;20125;-74
2021/07/28 08:09:26;;;;;;;;;;;;;;;33.72;43.16;99971.50;1745302;79;21828;-76
2021/07/28 08:11:56;;;;;;;;;;;;;;;33.71;43.27;99962.58;1745118;81;20199;-68
2021/07/28 08:14:24;;;;;;;;;;;;;;;33.79;43.59;99960.89;1741646;80;20162;-75
2021/07/28 08:16:52;;;;;;;;;;;;;;;33.88;43.51;99953.76;1752519;80;20437;-78
2021/07/28 08:19:19;;;;;;;;;;;;;;;33.94;43.06;99962.25;1744680;81;20175;-72
2021/07/28 08:21:47;;;;;;;;;;;;;;;34.02;43.21;99959.15;1747209;79;21799;-74
2021/07/28 08:24:15;;;;;;;;;;;;;;;34.11;42.93;99956.35;1743125;81;20152;-73
2021/07/28 08:26:41;;;;;;;;;;;;;;;34.10;42.24;99958.77;1739417;81;20159;-69
2021/07/28 08:29:08;;;;;;;;;;;;;;;33.96;42.78;99958.26;1744258;81;20144;-72
2021/07/28 08:31:35;;;;;;;;;;;;;;;33.93;43.01;99949.81;1742227;81;21074;-71
2021/07/28 08:34:02;;;;;;;;;;;;;;;33.98;43.06;99949.91;1744150;81;21103;-70
2021/07/28 08:36:29;;;;;;;;;;;;;;;34.03;43.17;99945.92;1757256;81;20141;-71
2021/07/28 08:38:56;;;;;;;;;;;;;;;34.07;43.28;99946.56;1739752;81;20175;-74
2021/07/28 08:41:23;;;;;;;;;;;;;;;34.08;43.02;99941.97;1746900;81;21424;-78
2021/07/28 08:43:53;;;;;;;;;;;;;;;34.07;43.24;99938.45;1752063;81;20148;-73
2021/07/28 08:46:19;;;;;;;;;;;;;;;34.05;43.46;99933.00;1752055;81;21991;-67
2021/07/28 08:48:46;;;;;;;;;;;;;;;34.05;43.42;99927.59;1758653;81;20107;-71
2021/07/28 08:51:13;;;;;;;;;;;;;;;33.96;43.71;99925.02;1719099;81;20467;-73
2021/07/28 08:53:41;;;;;;;;;;;;;;;33.90;43.98;99930.03;1750028;81;20163;-72
2021/07/28 08:56:07;;;;;;;;;;;;;;;33.88;44.09;99928.09;1742237;81;20490;-72
2021/07/28 08:58:34;;;;;;;;;;;;;;;33.92;44.25;99933.31;1754649;81;21079;-69
2021/07/28 09:01:01;;;;;;;;;;;;;;;33.89;43.71;99935.14;1761600;80;20087;-69
2021/07/28 09:03:30;;;;;;;;;;;;;;;33.80;44.50;99937.39;1787291;79;20158;-70
2021/07/28 09:05:58;;;;;;;;;;;;;;;33.76;44.06;99940.25;1776599;80;20405;-72
2021/07/28 09:08:27;;;;;;;;;;;;;;;33.70;43.49;99933.92;1779929;79;20122;-71
2021/07/28 09:10:59;;;;;;;;;;;;;;;33.57;43.61;99936.09;1766764;80;21083;-70
2021/07/28 09:13:29;;;;;;;;;;;;;;;33.40;43.64;99938.70;1753664;80;20100;-72
2021/07/28 09:15:58;;;;;;;;;;;;;;;33.24;44.19;99932.64;1783866;80;20169;-70
2021/07/28 09:18:46;;;;;;;;;;;;;;;33.15;44.68;99930.86;1767220;80;20396;-69
2021/07/28 09:21:22;;;;;;;;;;;;;;;33.11;44.74;99929.68;1754088;82;20085;-72
2021/07/28 09:23:51;;;;;;;;;;;;;;;33.06;45.12;99927.69;1753730;82;21993;-72
2021/07/28 09:26:39;;;;;;;;;;;;;;;33.03;45.33;99932.73;1753830;82;20423;-70
2021/07/28 09:29:11;;;;;;;;;;;;;;;32.96;44.80;99925.28;1774950;80;20083;-70
2021/07/28 09:31:46;;;;;;;;;;;;;;;32.91;45.12;99925.98;1778181;80;20181;-71
2021/07/28 09:34:26;;;;;;;;;;;;;;;32.91;44.82;99919.23;1777897;80;20376;-73
2021/07/28 09:37:00;;;;;;;;;;;;;;;32.85;44.76;99920.17;1778214;80;22012;-72
2021/07/28 09:39:33;;;;;;;;;;;;;;;32.80;45.53;99920.05;1783007;79;20118;-69
2021/07/28 09:42:12;;;;;;;;;;;;;;;32.76;45.53;99925.11;1781896;79;20091;-70
2021/07/28 09:44:43;;;;;;;;;;;;;;;32.67;45.90;99924.30;1792275;79;20156;-72
2021/07/28 09:47:20;;;;;;;;;;;;;;;32.59;46.24;99916.55;1783215;79;20090;-70
2021/07/28 09:49:49;;;;;;;;;;;;;;;32.57;46.37;99907.88;1783013;79;21454;-71
2021/07/28 09:52:17;;;;;;;;;;;;;;;32.57;46.55;99909.22;1777003;78;20074;-70
2021/07/28 09:54:44;;;;;;;;;;;;;;;32.58;46.77;99908.17;1779313;79;20181;-67
2021/07/28 09:57:14;;;;;;;;;;;;;;;32.59;46.96;99900.38;1773695;79;20277;-68
2021/07/28 09:59:51;;;;;;;;;;;;;;;32.58;47.05;99895.51;1784647;79;20095;-73
2021/07/28 10:02:25;;;;;;;;;;;;;;;32.59;46.81;99904.42;1791367;79;21136;-73
2021/07/28 10:04:58;;;;;;;;;;;;;;;32.59;46.60;99898.50;1781066;79;20124;-73
2021/07/28 10:07:25;;;;;;;;;;;;;;;32.52;46.30;99892.92;1793919;79;20464;-70
2021/07/28 10:10:01;;;;;;;;;;;;;;;32.40;46.51;99896.41;1779787;79;20186;-73
2021/07/28 10:12:29;;;;;;;;;;;;;;;32.33;46.77;99893.55;1777131;79;20393;-73
2021/07/28 10:15:00;;;;;;;;;;;;;;;32.27;47.41;99896.64;1782625;79;20177;-73
2021/07/28 10:17:29;;;;;;;;;;;;;;;32.25;47.14;99897.92;1758646;79;20165;-74
2021/07/28 10:19:59;;;;;;;;;;;;;;;32.22;47.27;99886.25;1766493;79;20165;-74
2021/07/28 10:22:28;;;;;;;;;;;;;;;32.14;47.40;99890.06;1763523;80;20082;-73
2021/07/28 10:24:55;;;;;;;;;;;;;;;32.14;47.66;99884.67;1780012;79;20143;-73
2021/07/28 10:27:25;;;;;;;;;;;;;;;32.19;47.48;99885.33;1785120;79;21124;-73
2021/07/28 10:29:55;;;;;;;;;;;;;;;32.23;47.56;99891.41;1778445;79;20153;-74
2021/07/28 10:32:32;;;;;;;;;;;;;;;32.22;47.38;99882.21;1761340;80;20479;-73
2021/07/28 10:35:24;;;;;;;;;;;;;;;32.15;47.57;99872.32;1786070;79;20103;-72
2021/07/28 10:37:52;;;;;;;;;;;;;;;32.16;47.54;99882.05;1777552;79;20119;-71
2021/07/28 10:40:33;;;;;;;;;;;;;;;32.09;47.71;99887.23;1796910;79;21074;-71
2021/07/28 10:43:01;;;;;;;;;;;;;;;32.01;48.29;99882.16;1797364;79;20094;-71
2021/07/28 10:45:48;;;;;;;;;;;;;;;32.03;48.23;99881.41;1799407;79;20114;-71
2021/07/28 10:48:48;;;;;;;;;;;;;;;32.07;48.06;99878.03;1786955;79;20143;-71
2021/07/28 10:51:38;;;;;;;;;;;;;;;32.09;47.83;99868.38;1774726;79;20128;-72
2021/07/28 10:54:06;;;;;;;;;;;;;;;32.08;48.25;99870.25;1787481;79;21147;-72
2021/07/28 10:56:37;;;;;;;;;;;;;;;32.10;47.91;99871.36;1784666;80;20158;-70
2021/07/28 10:59:18;;;;;;;;;;;;;;;32.10;47.76;99864.63;1768789;79;20115;-68
2021/07/28 11:01:52;;;;;;;;;;;;;;;32.13;48.16;99858.78;1800204;79;20140;-82
2021/07/28 11:04:25;;;;;;;;;;;;;;;32.18;48.22;99858.09;1793334;80;20137;-64
2021/07/28 11:06:52;;;;;;;;;;;;;;;32.24;47.99;99851.81;1790474;80;21142;-65
2021/07/28 11:09:18;;;;;;;;;;;;;;;32.32;48.11;99854.18;1801206;79;20110;-67
2021/07/28 11:11:46;;;;;;;;;;;;;;;32.35;47.46;99836.20;1797836;78;20074;-72
2021/07/28 11:14:13;;;;;;;;;;;;;;;32.37;46.71;99836.27;1792345;80;20078;-71
2021/07/28 11:16:40;;;;;;;;;;;;;;;32.35;46.53;99835.67;1793051;80;20101;-72
2021/07/28 11:19:09;;;;;;;;;;;;;;;32.40;46.53;99829.03;1792699;80;21146;-78
2021/07/28 11:21:35;;;;;;;;;;;;;;;32.47;46.47;99827.58;1792746;78;20455;-76
2021/07/28 11:24:05;;;;;;;;;;;;;;;32.52;45.85;99833.09;1792276;79;20093;-72
2021/07/28 11:26:41;;;;;;;;;;;;;;;32.54;45.74;99824.23;1801695;79;20150;-72
2021/07/28 11:29:09;;;;;;;;;;;;;;;32.60;45.47;99819.79;1806100;79;20148;-69
2021/07/28 11:31:42;;;;;;;;;;;;;;;32.63;44.35;99810.70;1800916;79;21109;-75
2021/07/28 11:34:17;;;;;;;;;;;;;;;32.67;44.08;99819.15;1803666;79;20698;-81
2021/07/28 11:36:47;;;;;;;;;;;;;;;32.74;44.31;99822.55;1745937;81;20185;-77
2021/07/28 11:39:16;;;;;;;;;;;;;;;32.86;44.31;99826.59;1745878;81;20509;-80
2021/07/28 11:41:43;;;;;;;;;;;;;;;32.96;43.75;99820.07;1751642;81;20145;-70
2021/07/28 11:44:11;;;;;;;;;;;;;;;32.98;43.11;99816.61;1738191;81;21474;-77
2021/07/28 11:46:38;;;;;;;;;;;;;;;32.91;42.92;99810.52;1737676;82;20114;-75
2021/07/28 11:49:07;;;;;;;;;;;;;;;32.86;43.12;99813.11;1742231;81;20495;-73
2021/07/28 11:51:38;;;;;;;;;;;;;;;32.87;42.62;99811.52;1747292;81;20135;-70
2021/07/28 11:54:12;;;;;;;;;;;;;;;32.95;42.64;99807.11;1746563;81;20177;-74
2021/07/28 11:56:48;;;;;;;;;;;;;;;33.03;42.20;99806.75;1732011;82;21103;-74
2021/07/28 11:59:20;;;;;;;;;;;;;;;33.08;41.82;99804.16;1745244;81;20161;-82
2021/07/28 12:01:52;;;;;;;;;;;;;;;33.10;41.65;99798.00;1744603;81;20161;-73
2021/07/28 12:04:25;;;;;;;;;;;;;;;33.09;41.31;99799.59;1738967;81;20401;-76
2021/07/28 12:06:52;;;;;;;;;;;;;;;33.10;41.44;99799.34;1741044;81;20120;-67
2021/07/28 12:09:28;;;;;;;;;;;;;;;33.16;41.69;99804.85;1733931;81;21140;-75
2021/07/28 12:12:02;;;;;;;;;;;;;;;33.24;41.88;99801.75;1747364;81;20095;-68
2021/07/28 12:14:38;;;;;;;;;;;;;;;33.35;41.79;99793.66;1746221;81;20123;-71
2021/07/28 12:17:20;;;;;;;;;;;;;;;33.39;40.67;99789.95;1737566;82;20431;-74
2021/07/28 12:20:08;;;;;;;;;;;;;;;33.42;40.56;99793.52;1731926;81;20573;-72
2021/07/28 12:22:38;;;;;;;;;;;;;;;33.44;40.20;99804.36;1738657;82;21776;-73
2021/07/28 12:25:18;;;;;;;;;;;;;;;33.47;39.92;99793.62;1737619;82;20134;-67
2021/07/28 12:28:02;;;;;;;;;;;;;;;33.47;39.83;99800.36;1736809;81;20120;-71
2021/07/28 12:30:36;;;;;;;;;;;;;;;33.47;40.11;99801.72;1735404;81;20110;-70
2021/07/28 12:33:15;;;;;;;;;;;;;;;33.43;39.97;99797.33;1740122;81;20122;-67
2021/07/28 12:35:50;;;;;;;;;;;;;;;33.40;40.01;99797.80;1738713;81;21145;-74
2021/07/28 12:38:28;;;;;;;;;;;;;;;33.37;41.30;99792.06;1739933;82;20134;-76
2021/07/28 12:40:58;;;;;;;;;;;;;;;33.14;42.44;99793.77;1739061;82;20115;-68
2021/07/28 12:43:30;;;;;;;;;;;;;;;32.87;42.96;99786.42;1738036;81;20122;-67
2021/07/28 12:45:59;;;;;;;;;;;;;;;32.63;43.50;99789.66;1741926;81;20092;-75
2021/07/28 12:48:26;;;;;;;;;;;;;;;32.47;43.19;99785.80;1738243;81;21118;-75
2021/07/28 12:50:54;;;;;;;;;;;;;;;32.37;43.05;99784.23;1737158;82;20101;-65
2021/07/28 12:53:23;;;;;;;;;;;;;;;32.27;42.65;99791.55;1742099;81;20385;-68
2021/07/28 12:55:50;;;;;;;;;;;;;;;32.11;42.87;99784.11;1741756;81;20127;-71
2021/07/28 12:58:16;;;;;;;;;;;;;;;31.94;42.77;99778.59;1744264;81;20437;-67
2021/07/28 13:00:43;;;;;;;;;;;;;;;31.82;43.38;99781.78;1748876;81;21112;-73
2021/07/28 13:03:13;;;;;;;;;;;;;;;31.71;43.65;99776.66;1743499;81;20461;-70
2021/07/28 13:05:42;;;;;;;;;;;;;;;31.63;43.56;99776.95;1741469;81;20139;-77
2021/07/28 13:08:10;;;;;;;;;;;;;;;31.55;43.91;99781.86;1728293;82;20173;-71
2021/07/28 13:10:38;;;;;;;;;;;;;;;31.47;43.59;99777.09;1720544;81;20139;-78
2021/07/28 13:13:06;;;;;;;;;;;;;;;31.41;43.59;99772.61;1733948;81;21771;-67
2021/07/28 13:15:38;;;;;;;;;;;;;;;31.36;44.15;99777.03;1727315;82;20079;-77
2021/07/28 13:18:04;;;;;;;;;;;;;;;31.32;44.20;99775.31;1731766;81;20135;-69
2021/07/28 13:20:32;;;;;;;;;;;;;;;31.31;43.64;99765.60;1725408;81;20408;-71
2021/07/28 13:22:59;;;;;;;;;;;;;;;31.28;44.10;99760.67;1732075;82;20124;-79
2021/07/28 13:25:26;;;;;;;;;;;;;;;31.28;44.12;99761.20;1747190;81;21069;-75
2021/07/28 13:27:54;;;;;;;;;;;;;;;31.28;44.18;99755.81;1733938;81;20390;-72
2021/07/28 13:30:25;;;;;;;;;;;;;;;31.28;44.59;99758.50;1718038;82;20158;-76
2021/07/28 13:32:56;;;;;;;;;;;;;;;31.27;44.48;99763.06;1718203;82;20130;-78
2021/07/28 13:35:23;;;;;;;;;;;;;;;31.28;44.94;99761.20;1730208;82;20142;-78
2021/07/28 13:37:50;;;;;;;;;;;;;;;31.30;44.16;99755.88;1730680;81;21371;-82
2021/07/28 13:40:18;;;;;;;;;;;;;;;31.26;44.35;99749.84;1727437;82;20156;-78
2021/07/28 13:42:49;;;;;;;;;;;;;;;31.26;44.90;99746.62;1733354;82;20389;-78
2021/07/28 13:45:16;;;;;;;;;;;;;;;31.28;44.59;99746.40;1718440;81;20088;-81
2021/07/28 13:47:43;;;;;;;;;;;;;;;31.31;44.51;99745.42;1718815;82;20152;-72
2021/07/28 13:50:11;;;;;;;;;;;;;;;31.35;44.66;99749.83;1728645;81;21067;-72
2021/07/28 13:52:38;;;;;;;;;;;;;;;31.36;44.76;99743.39;1730911;81;20232;-74
2021/07/28 13:55:06;;;;;;;;;;;;;;;31.35;44.80;99740.41;1730051;81;20204;-78
2021/07/28 13:57:35;;;;;;;;;;;;;;;31.32;44.35;99740.34;1729521;81;20115;-77
2021/07/28 14:00:01;;;;;;;;;;;;;;;31.31;44.40;99741.91;1733653;81;20150;-73
2021/07/28 14:02:30;;;;;;;;;;;;;;;31.29;44.71;99741.31;1729635;81;21992;-68
2021/07/28 14:04:57;;;;;;;;;;;;;;;31.26;45.18;99737.73;1732920;82;20162;-75
2021/07/28 14:07:26;;;;;;;;;;;;;;;31.25;44.95;99742.81;1734728;82;20158;-69
2021/07/28 14:09:54;;;;;;;;;;;;;;;31.23;44.93;99734.97;1707984;82;20405;-65
2021/07/28 14:12:22;;;;;;;;;;;;;;;31.19;45.05;99734.34;1736760;82;20088;-65
2021/07/28 14:14:49;;;;;;;;;;;;;;;31.18;45.19;99731.34;1716285;82;21236;-70
